createdAt,value
2022-10-14T00:01:47.399Z,35.35
2022-10-14T00:04:14.768Z,28.13
2022-10-14T00:06:41.417Z,31.50
2022-10-14T00:09:09.599Z,33.88
2022-10-14T00:11:37.787Z,31.08
2022-10-14T00:14:16.915Z,29.52
2022-10-14T00:16:45.437Z,36.00
2022-10-14T00:19:13.330Z,29.67
2022-10-14T00:21:43.058Z,29.73
2022-10-14T00:24:12.593Z,29.40
2022-10-14T00:26:40.687Z,32.45
2022-10-14T00:29:11.208Z,27.35
2022-10-14T00:31:37.791Z,28.45
2022-10-14T00:34:04.730Z,29.92
2022-10-14T00:36:31.371Z,30.30
2022-10-14T00:38:58.204Z,24.02
2022-10-14T00:41:27.467Z,29.88
2022-10-14T00:44:03.007Z,26.20
2022-10-14T00:46:33.243Z,28.58
2022-10-14T00:49:03.577Z,25.70
2022-10-14T00:51:30.417Z,28.98
2022-10-14T00:53:57.091Z,26.98
2022-10-14T00:56:28.754Z,25.15
2022-10-14T00:58:56.679Z,26.47
2022-10-14T01:01:23.543Z,24.20
2022-10-14T01:03:50.283Z,27.85
2022-10-14T01:06:25.738Z,22.95
2022-10-14T01:09:24.136Z,22.15
2022-10-14T01:12:30.490Z,21.95
2022-10-14T01:15:35.711Z,27.88
2022-10-14T01:18:51.930Z,26.48
2022-10-14T01:21:32.739Z,27.55
2022-10-14T01:24:41.967Z,26.40
2022-10-14T01:27:19.652Z,29.45
2022-10-14T01:30:08.198Z,23.17
2022-10-14T01:32:48.933Z,26.15
2022-10-14T01:36:16.936Z,28.40
2022-10-14T01:39:11.200Z,22.88
2022-10-14T01:41:46.485Z,25.80
2022-10-14T01:44:16.287Z,28.67
2022-10-14T01:46:48.785Z,29.85
2022-10-14T01:51:50.723Z,27.65
2022-10-14T01:54:28.218Z,24.33
2022-10-14T01:56:59.559Z,30.48
2022-10-14T01:59:27.088Z,28.25
2022-10-14T02:01:53.747Z,25.58
2022-10-14T02:04:22.470Z,27.73
2022-10-14T02:07:00.330Z,33.70
2022-10-14T02:09:48.115Z,22.02
2022-10-14T02:12:34.517Z,26.55
2022-10-14T02:15:29.383Z,30.60
2022-10-14T02:18:37.695Z,26.75
2022-10-14T02:21:44.587Z,23.90
2022-10-14T02:24:20.215Z,31.77
2022-10-14T02:26:49.818Z,27.10
2022-10-14T02:29:20.162Z,23.98
2022-10-14T02:31:48.554Z,28.58
2022-10-14T02:34:19.291Z,28.60
2022-10-14T02:36:47.599Z,30.52
2022-10-14T02:39:21.514Z,26.38
2022-10-14T02:41:48.318Z,29.80
2022-10-14T02:44:14.923Z,23.42
2022-10-14T02:46:43.042Z,28.55
2022-10-14T02:49:09.697Z,30.50
2022-10-14T02:51:36.515Z,25.17
2022-10-14T02:54:03.542Z,23.13
2022-10-14T02:56:30.146Z,21.05
2022-10-14T02:58:56.715Z,28.65
2022-10-14T03:01:23.360Z,29.33
2022-10-14T03:03:50.205Z,32.70
2022-10-14T03:06:16.966Z,29.88
2022-10-14T03:08:43.678Z,46.95
2022-10-14T03:11:10.294Z,41.85
2022-10-14T03:13:36.848Z,40.17
2022-10-14T03:16:03.866Z,46.05
2022-10-14T03:18:31.385Z,44.90
2022-10-14T03:20:58.066Z,50.33
2022-10-14T03:23:24.863Z,40.30
2022-10-14T03:25:51.427Z,49.40
2022-10-14T03:28:18.104Z,42.13
2022-10-14T03:30:44.759Z,39.30
2022-10-14T03:33:14.764Z,41.42
2022-10-14T03:35:42.161Z,44.92
2022-10-14T03:38:08.914Z,48.95
2022-10-14T03:40:35.703Z,58.35
2022-10-14T03:43:02.660Z,50.85
2022-10-14T03:45:29.325Z,37.95
2022-10-14T03:47:56.101Z,40.80
2022-10-14T03:50:23.241Z,38.55
2022-10-14T03:52:54.625Z,35.58
2022-10-14T03:55:22.541Z,43.47
2022-10-14T03:57:49.118Z,37.65
2022-10-14T04:00:16.375Z,32.65
2022-10-14T04:02:43.075Z,36.67
2022-10-14T04:05:10.582Z,34.90
2022-10-14T04:07:37.278Z,32.30
2022-10-14T04:10:04.638Z,31.90
2022-10-14T04:12:31.673Z,37.90
2022-10-14T04:14:58.453Z,34.45
2022-10-14T04:17:25.536Z,31.73
2022-10-14T04:19:53.630Z,30.13
2022-10-14T04:22:20.809Z,30.25
2022-10-14T04:24:47.603Z,25.80
2022-10-14T04:27:14.215Z,30.02
2022-10-14T04:29:41.026Z,33.33
2022-10-14T04:32:07.619Z,24.15
2022-10-14T04:34:34.242Z,30.65
2022-10-14T04:37:01.004Z,31.92
2022-10-14T04:39:27.610Z,29.27
2022-10-14T04:41:54.447Z,25.42
2022-10-14T04:44:21.411Z,32.83
2022-10-14T04:46:48.149Z,29.85
2022-10-14T04:49:16.491Z,30.38
2022-10-14T04:51:43.399Z,28.88
2022-10-14T04:54:10.475Z,29.73
2022-10-14T04:56:37.770Z,28.88
2022-10-14T04:59:05.591Z,26.08
2022-10-14T05:01:34.256Z,31.38
2022-10-14T05:04:01.093Z,26.10
2022-10-14T05:06:28.143Z,25.33
2022-10-14T05:08:55.025Z,29.02
2022-10-14T05:11:21.704Z,24.73
2022-10-14T05:13:48.623Z,28.88
2022-10-14T05:16:15.446Z,27.60
2022-10-14T05:18:42.042Z,26.20
2022-10-14T05:21:09.027Z,32.42
2022-10-14T05:23:35.633Z,32.05
2022-10-14T05:26:02.232Z,26.23
2022-10-14T05:28:28.961Z,33.05
2022-10-14T05:30:55.780Z,31.15
2022-10-14T05:33:22.439Z,31.73
2022-10-14T05:36:04.125Z,23.73
2022-10-14T05:38:34.212Z,27.17
2022-10-14T05:41:01.582Z,22.38
2022-10-14T05:43:32.421Z,26.98
2022-10-14T05:46:00.229Z,30.05
2022-10-14T05:48:26.998Z,29.05
2022-10-14T05:50:53.612Z,17.52
2022-10-14T05:53:20.247Z,21.60
2022-10-14T05:55:47.071Z,18.73
2022-10-14T05:58:13.877Z,23.70
2022-10-14T06:00:40.515Z,21.23
2022-10-14T06:03:07.147Z,23.77
2022-10-14T06:05:37.188Z,20.15
2022-10-14T06:08:05.102Z,28.83
2022-10-14T06:10:31.785Z,19.73
2022-10-14T06:12:58.388Z,16.75
2022-10-14T06:15:24.982Z,24.55
2022-10-14T06:17:51.799Z,23.42
2022-10-14T06:20:18.551Z,21.75
2022-10-14T06:22:45.659Z,17.45
2022-10-14T06:25:12.324Z,19.33
2022-10-14T06:27:38.956Z,19.23
2022-10-14T06:30:06.424Z,25.27
2022-10-14T06:32:33.340Z,20.45
2022-10-14T06:35:00.341Z,20.20
2022-10-14T06:37:26.939Z,21.95
2022-10-14T06:39:53.593Z,21.80
2022-10-14T06:42:20.300Z,23.10
2022-10-14T06:44:47.065Z,21.30
2022-10-14T06:47:13.741Z,23.25
2022-10-14T06:49:40.380Z,27.73
2022-10-14T06:52:07.110Z,23.80
2022-10-14T06:54:38.880Z,27.60
2022-10-14T06:57:06.331Z,21.58
2022-10-14T06:59:32.978Z,18.17
2022-10-14T07:01:59.664Z,22.60
2022-10-14T07:04:26.529Z,18.60
2022-10-14T07:06:53.339Z,17.17
2022-10-14T07:09:20.233Z,19.05
2022-10-14T07:11:46.839Z,25.50
2022-10-14T07:14:13.401Z,21.08
2022-10-14T07:16:40.193Z,23.88
2022-10-14T07:19:06.769Z,19.55
2022-10-14T07:21:33.373Z,13.43
2022-10-14T07:23:59.944Z,14.75
2022-10-14T07:26:26.501Z,16.73
2022-10-14T07:28:53.225Z,14.68
2022-10-14T07:31:19.890Z,17.20
2022-10-14T07:33:46.662Z,14.38
2022-10-14T07:36:18.512Z,14.18
2022-10-14T07:38:48.438Z,19.42
2022-10-14T07:41:20.790Z,14.43
2022-10-14T07:43:52.361Z,13.48
2022-10-14T07:46:29.162Z,13.33
2022-10-14T07:49:00.561Z,15.75
2022-10-14T07:51:27.891Z,8.25
2022-10-14T07:53:56.328Z,8.88
2022-10-14T07:56:23.702Z,13.10
2022-10-14T07:58:50.510Z,13.30
2022-10-14T08:01:18.844Z,13.02
2022-10-14T08:03:47.278Z,11.70
2022-10-14T08:06:14.398Z,10.00
2022-10-14T08:08:42.013Z,12.95
2022-10-14T08:11:14.495Z,13.80
2022-10-14T08:13:45.055Z,13.30
2022-10-14T08:16:15.417Z,12.75
2022-10-14T08:18:42.359Z,11.07
2022-10-14T08:21:09.059Z,12.48
2022-10-14T08:23:35.666Z,11.20
2022-10-14T08:26:02.260Z,30.88
2022-10-14T08:28:29.268Z,65.90
2022-10-14T08:30:56.334Z,19.45
2022-10-14T08:33:22.897Z,8.73
2022-10-14T08:35:53.850Z,12.95
2022-10-14T08:38:25.200Z,9.48
2022-10-14T08:41:24.845Z,7.78
2022-10-14T08:44:25.735Z,6.88
2022-10-14T08:47:01.076Z,7.93
2022-10-14T08:49:49.441Z,6.82
2022-10-14T08:52:25.625Z,5.03
2022-10-14T08:55:00.903Z,3.72
2022-10-14T08:57:36.710Z,3.35
2022-10-14T09:00:04.558Z,3.33
2022-10-14T09:02:40.194Z,4.25
2022-10-14T09:05:09.883Z,3.42
2022-10-14T09:07:37.216Z,4.80
2022-10-14T09:10:08.446Z,4.60
2022-10-14T09:12:36.520Z,5.18
2022-10-14T09:15:24.854Z,3.78
2022-10-14T09:18:43.921Z,3.40
2022-10-14T09:21:51.808Z,4.72
2022-10-14T09:24:25.332Z,7.78
2022-10-14T09:29:40.329Z,3.25
2022-10-14T09:32:15.639Z,2.63
2022-10-14T09:34:48.645Z,4.07
2022-10-14T09:37:35.191Z,4.30
2022-10-14T09:40:34.087Z,4.55
2022-10-14T09:43:21.217Z,3.10
2022-10-14T09:46:00.425Z,3.72
2022-10-14T09:48:53.475Z,5.35
2022-10-14T09:51:23.805Z,4.07
2022-10-14T09:53:58.515Z,10.63
2022-10-14T09:56:45.271Z,4.50
2022-10-14T09:59:22.744Z,5.18
2022-10-14T10:01:55.549Z,4.85
2022-10-14T10:04:47.190Z,2.67
2022-10-14T10:07:24.765Z,3.53
2022-10-14T10:09:56.281Z,6.10
2022-10-14T10:12:28.916Z,2.63
2022-10-14T10:14:58.180Z,3.22
2022-10-14T10:17:27.266Z,3.47
2022-10-14T10:20:33.793Z,5.90
2022-10-14T10:23:28.939Z,57.13
2022-10-14T10:25:55.691Z,89.80
2022-10-14T10:28:32.782Z,19.58
2022-10-14T10:31:28.984Z,5.90
2022-10-14T10:34:36.138Z,20.58
2022-10-14T10:37:31.582Z,11.10
2022-10-14T10:40:37.028Z,6.93
2022-10-14T10:43:55.080Z,4.13
2022-10-14T10:46:45.142Z,4.20
2022-10-14T10:49:40.632Z,2.35
2022-10-14T10:52:23.482Z,3.90
2022-10-14T10:55:19.448Z,3.03
2022-10-14T10:58:07.483Z,7.68
2022-10-14T11:00:49.802Z,2.90
2022-10-14T11:03:44.482Z,1.85
2022-10-14T11:06:41.956Z,5.00
2022-10-14T11:09:38.227Z,4.38
2022-10-14T11:12:47.014Z,3.70
2022-10-14T11:15:23.581Z,4.32
2022-10-14T11:17:58.899Z,2.20
2022-10-14T11:21:36.049Z,6.05
2022-10-14T11:24:48.447Z,2.90
2022-10-14T11:27:48.844Z,2.92
2022-10-14T11:30:37.771Z,5.55
2022-10-14T11:33:39.866Z,4.00
2022-10-14T11:36:38.164Z,2.60
2022-10-14T11:39:33.341Z,4.35
2022-10-14T11:42:41.506Z,2.78
2022-10-14T11:45:35.525Z,3.60
2022-10-14T11:48:20.326Z,3.58
2022-10-14T11:50:52.540Z,3.72
2022-10-14T11:53:25.209Z,3.50
2022-10-14T11:56:04.882Z,2.45
2022-10-14T11:58:35.500Z,2.63
2022-10-14T12:01:20.601Z,5.93
2022-10-14T12:04:18.348Z,2.30
2022-10-14T12:06:55.721Z,1.20
2022-10-14T12:09:28.422Z,2.53
2022-10-14T12:12:02.972Z,2.50
2022-10-14T12:14:34.726Z,5.95
2022-10-14T12:17:06.411Z,3.03
2022-10-14T12:19:33.800Z,8.82
2022-10-14T12:22:22.060Z,5.22
2022-10-14T12:24:58.874Z,3.17
2022-10-14T12:27:28.700Z,3.83
2022-10-14T12:29:58.428Z,7.95
2022-10-14T12:32:31.952Z,4.20
2022-10-14T12:35:02.410Z,5.45
2022-10-14T12:37:50.716Z,3.25
2022-10-14T12:40:23.976Z,6.63
2022-10-14T12:42:59.003Z,3.00
2022-10-14T12:45:28.904Z,2.05
2022-10-14T12:48:26.536Z,3.15
2022-10-14T12:51:10.570Z,2.50
2022-10-14T12:53:46.658Z,4.35
2022-10-14T12:56:29.728Z,5.22
2022-10-14T12:59:01.344Z,3.50
2022-10-14T13:01:32.359Z,2.97
2022-10-14T13:04:17.494Z,3.13
2022-10-14T13:07:41.263Z,3.47
2022-10-14T13:10:59.530Z,2.83
2022-10-14T13:13:59.775Z,2.25
2022-10-14T13:17:06.876Z,4.07
2022-10-14T13:19:44.495Z,2.25
2022-10-14T13:22:38.415Z,3.97
2022-10-14T13:25:12.983Z,5.80
2022-10-14T13:28:05.112Z,2.88
2022-10-14T13:31:12.964Z,5.22
2022-10-14T13:34:12.695Z,3.80
2022-10-14T13:36:56.311Z,2.15
2022-10-14T13:39:23.281Z,3.65
2022-10-14T13:41:50.706Z,3.85
2022-10-14T13:44:21.853Z,1.42
2022-10-14T13:46:50.017Z,4.85
2022-10-14T13:49:33.760Z,4.55
2022-10-14T13:52:04.562Z,3.97
2022-10-14T13:54:31.666Z,4.60
2022-10-14T14:00:43.664Z,2.80
2022-10-14T14:03:40.214Z,2.58
2022-10-14T14:06:15.443Z,3.95
2022-10-14T14:08:51.218Z,5.85
2022-10-14T14:11:27.115Z,4.90
2022-10-14T14:14:01.795Z,3.70
2022-10-14T14:16:51.789Z,5.93
2022-10-14T14:19:21.569Z,5.30
2022-10-14T14:21:48.202Z,3.47
2022-10-14T14:24:25.413Z,3.33
2022-10-14T14:26:54.835Z,5.97
2022-10-14T14:29:26.928Z,4.45
2022-10-14T14:32:06.102Z,5.15
2022-10-14T14:34:35.824Z,5.20
2022-10-14T14:37:23.576Z,4.47
2022-10-14T14:40:20.206Z,9.40
2022-10-14T14:42:50.238Z,5.20
2022-10-14T14:45:21.007Z,10.13
2022-10-14T14:47:50.033Z,4.80
2022-10-14T14:50:35.424Z,5.05
2022-10-14T14:53:11.679Z,7.60
2022-10-14T14:56:14.316Z,4.10
2022-10-14T14:58:52.401Z,5.03
2022-10-14T15:01:27.775Z,13.98
2022-10-14T15:04:15.400Z,5.93
2022-10-14T15:06:51.526Z,4.35
2022-10-14T15:09:28.949Z,5.68
2022-10-14T15:11:58.006Z,4.43
2022-10-14T15:14:30.684Z,3.42
2022-10-14T15:16:57.674Z,6.13
2022-10-14T15:19:37.302Z,9.90
2022-10-14T15:22:17.175Z,6.35
2022-10-14T15:25:06.802Z,4.18
2022-10-14T15:27:51.127Z,10.90
2022-10-14T15:30:50.503Z,6.70
2022-10-14T15:33:21.101Z,10.20
2022-10-14T15:35:57.043Z,7.82
2022-10-14T15:38:24.718Z,4.50
2022-10-14T15:40:54.810Z,7.85
2022-10-14T15:43:27.270Z,6.20
2022-10-14T15:48:46.033Z,13.02
2022-10-14T15:51:19.683Z,5.47
2022-10-14T15:53:46.694Z,6.63
2022-10-14T15:56:13.467Z,6.10
2022-10-14T15:58:40.204Z,7.43
2022-10-14T16:01:07.218Z,6.38
2022-10-14T16:03:37.259Z,8.75
2022-10-14T16:06:05.916Z,7.90
2022-10-14T16:08:33.558Z,8.48
2022-10-14T16:11:00.361Z,7.50
2022-10-14T16:13:27.101Z,7.65
2022-10-14T16:15:58.754Z,11.18
2022-10-14T16:18:27.183Z,11.32
2022-10-14T16:20:53.977Z,13.48
2022-10-14T16:23:22.645Z,10.60
2022-10-14T16:25:50.471Z,9.65
2022-10-14T16:28:17.984Z,9.18
2022-10-14T16:30:49.374Z,12.57
2022-10-14T16:33:19.990Z,11.55
2022-10-14T16:35:51.046Z,8.30
2022-10-14T16:38:19.126Z,15.57
2022-10-14T16:40:45.777Z,15.52
2022-10-14T16:43:12.416Z,15.60
2022-10-14T16:45:41.790Z,12.90
2022-10-14T16:48:08.541Z,19.52
2022-10-14T16:50:35.239Z,14.02
2022-10-14T16:53:20.401Z,14.70
2022-10-14T16:55:47.566Z,17.00
2022-10-14T16:58:15.655Z,12.93
2022-10-14T17:00:42.303Z,15.98
2022-10-14T17:03:09.008Z,13.13
2022-10-14T17:05:38.087Z,15.80
2022-10-14T17:08:05.102Z,24.35
2022-10-14T17:10:31.898Z,13.77
2022-10-14T17:12:58.632Z,16.98
2022-10-14T17:15:25.252Z,16.15
2022-10-14T17:17:53.195Z,15.98
2022-10-14T17:20:21.874Z,21.05
2022-10-14T17:22:49.846Z,11.00
2022-10-14T17:25:17.839Z,13.07
2022-10-14T17:27:44.453Z,13.40
2022-10-14T17:30:11.676Z,14.60
2022-10-14T17:32:38.437Z,15.13
2022-10-14T17:35:06.520Z,14.00
2022-10-14T17:37:34.232Z,16.48
2022-10-14T17:40:00.871Z,14.48
2022-10-14T17:42:27.463Z,16.88
2022-10-14T17:44:54.110Z,12.70
2022-10-14T17:47:20.934Z,12.38
2022-10-14T17:49:48.117Z,9.13
2022-10-14T17:52:14.791Z,12.85
2022-10-14T17:54:41.607Z,11.70
2022-10-14T17:57:08.540Z,14.40
2022-10-14T17:59:35.264Z,18.30
2022-10-14T18:02:03.369Z,20.52
2022-10-14T18:04:32.977Z,15.27
2022-10-14T18:06:59.749Z,16.35
2022-10-14T18:09:26.441Z,18.63
2022-10-14T18:12:08.101Z,14.82
2022-10-14T18:17:02.265Z,9.93
2022-10-14T18:19:29.276Z,12.63
2022-10-14T18:21:56.045Z,11.95
2022-10-14T18:24:23.348Z,20.95
2022-10-14T18:26:53.440Z,15.68
2022-10-14T18:29:20.170Z,18.50
2022-10-14T18:31:48.879Z,13.25
2022-10-14T18:34:15.662Z,11.25
2022-10-14T18:36:42.442Z,14.23
2022-10-14T18:39:11.454Z,16.95
2022-10-14T18:41:38.241Z,12.20
2022-10-14T18:44:06.566Z,15.23
2022-10-14T18:46:38.475Z,17.55
2022-10-14T18:49:07.934Z,18.00
2022-10-14T18:51:37.090Z,10.68
2022-10-14T18:54:11.219Z,17.92
2022-10-14T18:56:38.846Z,12.05
2022-10-14T18:59:09.162Z,12.32
2022-10-14T19:01:37.470Z,15.15
2022-10-14T19:04:06.070Z,12.65
2022-10-14T19:06:34.283Z,13.52
2022-10-14T19:09:01.918Z,13.20
2022-10-14T19:11:29.692Z,9.07
2022-10-14T19:13:58.396Z,16.83
2022-10-14T19:16:30.839Z,10.57
2022-10-14T19:21:30.519Z,14.13
2022-10-14T19:23:58.682Z,17.73
2022-10-14T19:26:28.605Z,9.55
2022-10-14T19:28:57.706Z,9.27
2022-10-14T19:31:26.863Z,17.30
2022-10-14T19:33:54.609Z,24.02
2022-10-14T19:36:22.687Z,14.02
2022-10-14T19:38:52.367Z,13.55
2022-10-14T19:41:19.105Z,10.75
2022-10-14T19:43:46.093Z,16.90
2022-10-14T19:46:13.810Z,14.50
2022-10-14T19:48:41.025Z,13.90
2022-10-14T19:51:11.591Z,18.30
2022-10-14T19:53:40.137Z,16.45
2022-10-14T19:56:09.474Z,13.10
2022-10-14T19:58:39.657Z,15.60
2022-10-14T20:01:15.881Z,15.13
2022-10-14T20:03:43.145Z,12.00
2022-10-14T20:06:11.976Z,10.07
2022-10-14T20:08:39.151Z,16.58
2022-10-14T20:11:07.980Z,12.55
2022-10-14T20:13:35.151Z,15.70
2022-10-14T20:16:02.616Z,14.15
2022-10-14T20:18:33.190Z,22.65
2022-10-14T20:21:01.806Z,19.50
2022-10-14T20:23:28.650Z,20.13
2022-10-14T20:26:02.906Z,26.05
2022-10-14T20:28:29.828Z,19.13
2022-10-14T20:30:57.427Z,18.90
2022-10-14T20:33:25.214Z,16.33
2022-10-14T20:36:07.753Z,21.35
2022-10-14T20:38:34.594Z,24.58
2022-10-14T20:41:12.787Z,14.90
2022-10-14T20:43:40.290Z,21.15
2022-10-14T20:46:06.893Z,22.48
2022-10-14T20:48:33.750Z,19.27
2022-10-14T20:51:03.935Z,23.98
2022-10-14T20:53:31.145Z,28.30
2022-10-14T20:56:02.846Z,22.08
2022-10-14T20:58:29.506Z,24.02
2022-10-14T21:01:08.183Z,16.92
2022-10-14T21:03:35.103Z,15.38
2022-10-14T21:06:03.538Z,18.10
2022-10-14T21:08:30.268Z,14.13
2022-10-14T21:11:12.143Z,21.45
2022-10-14T21:13:47.487Z,14.90
2022-10-14T21:16:21.413Z,20.17
2022-10-14T21:18:53.717Z,22.60
2022-10-14T21:21:29.503Z,13.77
2022-10-14T21:23:56.473Z,14.18
2022-10-14T21:26:23.443Z,15.25
2022-10-14T21:28:50.132Z,11.82
2022-10-14T21:31:19.144Z,18.70
2022-10-14T21:33:59.858Z,15.57
2022-10-14T21:36:29.783Z,13.55
2022-10-14T21:38:57.158Z,14.45
2022-10-14T21:41:24.666Z,12.43
2022-10-14T21:43:51.455Z,19.52
2022-10-14T21:46:18.202Z,20.38
2022-10-14T21:48:45.399Z,25.95
2022-10-14T21:51:17.434Z,14.43
2022-10-14T21:53:45.540Z,14.32
2022-10-14T21:56:14.559Z,11.63
2022-10-14T21:58:41.595Z,16.40
2022-10-14T22:01:09.804Z,12.05
2022-10-14T22:03:37.829Z,12.50
2022-10-14T22:06:07.418Z,12.27
2022-10-14T22:08:36.479Z,11.75
2022-10-14T22:11:04.220Z,12.50
2022-10-14T22:13:31.082Z,23.92
2022-10-14T22:15:57.997Z,14.45
2022-10-14T22:18:24.626Z,13.30
2022-10-14T22:21:00.996Z,10.25
2022-10-14T22:23:27.628Z,14.40
2022-10-14T22:25:54.663Z,15.10
2022-10-14T22:28:21.314Z,20.83
2022-10-14T22:30:47.916Z,14.63
2022-10-14T22:33:14.507Z,12.80
2022-10-14T22:35:41.300Z,17.02
2022-10-14T22:38:07.886Z,14.85
2022-10-14T22:40:34.748Z,12.27
2022-10-14T22:43:01.406Z,15.13
2022-10-14T22:45:28.151Z,16.67
2022-10-14T22:47:54.941Z,15.57
2022-10-14T22:50:21.578Z,17.60
2022-10-14T22:52:48.139Z,17.80
2022-10-14T22:55:14.996Z,16.80
2022-10-14T22:57:41.896Z,13.30
2022-10-14T23:00:09.416Z,20.67
2022-10-14T23:02:36.050Z,17.27
2022-10-14T23:05:02.820Z,16.17
2022-10-14T23:07:29.535Z,17.63
2022-10-14T23:09:56.340Z,14.52
2022-10-14T23:12:23.100Z,19.27
2022-10-14T23:14:51.287Z,15.15
2022-10-14T23:17:17.822Z,12.68
2022-10-14T23:19:44.377Z,12.20
2022-10-14T23:22:11.189Z,13.00
2022-10-14T23:24:37.950Z,15.50
2022-10-14T23:27:04.562Z,13.05
2022-10-14T23:29:31.150Z,19.80
2022-10-14T23:31:58.153Z,14.45
2022-10-14T23:34:25.013Z,13.85
2022-10-14T23:36:51.828Z,12.40
2022-10-14T23:39:18.474Z,19.25
2022-10-14T23:41:45.176Z,20.90
2022-10-14T23:44:12.172Z,14.35
2022-10-14T23:46:38.977Z,14.95
2022-10-14T23:49:14.354Z,16.40
2022-10-14T23:51:51.893Z,12.38
2022-10-14T23:54:18.526Z,18.70
2022-10-14T23:56:45.363Z,14.15
2022-10-14T23:59:12.279Z,15.07
